Time;durP1;ratioP1;P1;durP2;ratioP2;P2;SDS_P1;SDS_P2;PMS_P1;PMS_P2;Temp;Humidity;BMP_temperature;BMP_pressure;BME280_temperature;BME280_humidity;BME280_pressure;Samples;Min_cycle;Max_cycle;Signal;HPM_P1;HPM_P2
2023/04/20 00:02:09;;;;;;;;;;;;;;;;;;5043491;28;20295;-81
2023/04/20 00:04:35;;;;;;;;;;;;;;;;;;5034295;28;19912;-80
2023/04/20 00:07:01;;;;;;;;;;;;;;;;;;5040148;28;19909;-80
2023/04/20 00:09:27;;;;;;;;;;;2.00;99.90;;;;;;5037182;28;19917;-77
2023/04/20 00:11:53;;;;;;;;;;;;;;;;;;5021702;28;19920;-78
2023/04/20 00:14:19;;;;;;;;;;;;;;;;;;5021821;28;20022;-80
2023/04/20 00:16:45;;;;;;;;;;;;;;;;;;5025821;28;19916;-79
2023/04/20 00:19:11;;;;;;;;;;;;;;;;;;5026459;28;22505;-79
2023/04/20 00:21:37;;;;;;;;;;;;;;;;;;5012743;28;19963;-79
2023/04/20 00:24:03;;;;;;;;;;;;;;;;;;5011120;28;21150;-80
2023/04/20 00:26:29;;;;;;;;;;;;;;;;;;5025633;28;19978;-78
2023/04/20 00:28:55;;;;;;;;;;;;;;;;;;5010452;28;19928;-78
2023/04/20 00:31:21;;;;;;;;;;;;;;;;;;5017511;28;19949;-79
2023/04/20 00:33:46;;;;;;;;;;;;;;;;;;5024416;28;20376;-78
2023/04/20 00:36:12;;;;;;;;;;;;;;;;;;5032865;28;20003;-78
2023/04/20 00:38:38;;;;;;;;;;;;;;;;;;5032778;28;20561;-80
2023/04/20 00:41:04;;;;;;;;;;;;;;;;;;5025375;28;19939;-78
2023/04/20 00:43:30;;;;;;;;;;;;;;;;;;5021598;28;19913;-80
2023/04/20 00:45:56;;;;;;;;;;;;;;;;;;5029705;28;19940;-80
2023/04/20 00:48:22;;;;;;;;;;;;;;;;;;5020868;28;20288;-79
2023/04/20 00:50:47;;;;;;;;;;;;;;;;;;5030303;28;20012;-81
2023/04/20 00:53:13;;;;;;;;;;;;;;;;;;5029323;28;20434;-80
2023/04/20 00:55:39;;;;;;;;;;;;;;;;;;5011104;28;19913;-79
2023/04/20 00:58:05;;;;;;;;;;;;;;;;;;5020647;28;19909;-78
2023/04/20 01:00:31;;;;;;;;;;;;;;;;;;5014773;28;20031;-80
2023/04/20 01:02:57;;;;;;;;;;;;;;;;;;5009775;28;20648;-81
2023/04/20 01:05:23;;;;;;;;;;;;;;;;;;5020700;28;19916;-78
2023/04/20 01:07:49;;;;;;;;;;;;;;;;;;5020486;28;19917;-79
2023/04/20 01:10:15;;;;;;;;;;;;;;;;;;5023863;28;19913;-80
2023/04/20 01:12:41;;;;;;;;;;;;;;;;;;5034354;28;19928;-78
2023/04/20 01:15:07;;;;;;;;;;;;;;;;;;5015575;28;19917;-79
2023/04/20 01:17:33;;;;;;;;;;;;;;;;;;5025870;28;19927;-79
2023/04/20 01:19:59;;;;;;;;;;;;;;;;;;5024025;28;19917;-78
2023/04/20 01:22:25;;;;;;;;;;;;;;;;;;5026953;28;19924;-79
2023/04/20 01:24:51;;;;;;;;;;;;;;;;;;5015970;28;19917;-78
2023/04/20 01:27:17;;;;;;;;;;;;;;;;;;5020064;28;19947;-80
2023/04/20 01:29:42;;;;;;;;;;;;;;;;;;5016278;28;19978;-80
2023/04/20 01:32:08;;;;;;;;;;;;;;;;;;5038241;28;19947;-78
2023/04/20 01:34:34;;;;;;;;;;;;;;;;;;5024112;28;19913;-78
2023/04/20 01:37:01;;;;;;;;;;;;;;;;;;5033200;28;19920;-80
2023/04/20 01:39:26;;;;;;;;;;;;;;;;;;5020129;28;19921;-78
2023/04/20 01:41:52;;;;;;;;;;;;;;;;;;5015746;28;20671;-79
2023/04/20 01:44:18;;;;;;;;;;;;;;;;;;5028463;28;19922;-78
2023/04/20 01:46:44;;;;;;;;;;;;;;;;;;5018883;28;19924;-78
2023/04/20 01:49:10;;;;;;;;;;;;;;;;;;5028453;28;19943;-80
2023/04/20 01:51:36;;;;;;;;;;;2.40;99.90;;;;;;5021682;28;19924;-78
2023/04/20 01:54:01;;;;;;;;;;;;;;;;;;5037000;28;19908;-78
2023/04/20 01:56:27;;;;;;;4.50;2.40;;;;;;;;;;5022678;28;19931;-79
2023/04/20 01:58:54;;;;;;;4.72;1.90;;;;;;;;;;5020313;28;20036;-78
2023/04/20 02:01:20;;;;;;;1.48;1.08;;;;;;;;;;5026324;28;20108;-79
2023/04/20 02:03:45;;;;;;;6.85;2.15;;;2.10;99.90;;;;;;5037565;28;20555;-78
2023/04/20 02:06:11;;;;;;;6.10;1.92;;;;;;;;;;5016537;28;20038;-79
2023/04/20 02:08:37;;;;;;;4.05;2.08;;;;;;;;;;5020609;28;20029;-79
2023/04/20 02:11:03;;;;;;;4.20;1.83;;;;;;;;;;5014309;28;20038;-79
2023/04/20 02:13:30;;;;;;;4.20;2.08;;;;;;;;;;5012657;28;20510;-79
2023/04/20 02:15:55;;;;;;;4.38;2.55;;;;;;;;;;5038015;28;20429;-78
2023/04/20 02:18:21;;;;;;;4.40;2.22;;;;;;;;;;5025001;28;20413;-80
2023/04/20 02:20:47;;;;;;;3.63;2.23;;;;;;;;;;5012067;28;20776;-78
2023/04/20 02:23:14;;;;;;;3.77;2.27;;;;;;;;;;5021706;28;20409;-79
2023/04/20 02:25:40;;;;;;;5.30;2.30;;;;;;;;;;5031149;28;20734;-80
2023/04/20 02:28:06;;;;;;;4.88;2.65;;;;;;;;;;5036898;28;20395;-79
2023/04/20 02:30:32;;;;;;;6.60;2.25;;;;;;;;;;5039064;28;20407;-78
2023/04/20 02:32:58;;;;;;;5.63;2.35;;;;;;;;;;5033166;28;20454;-79
2023/04/20 02:35:25;;;;;;;3.80;2.20;;;;;;;;;;5020996;28;21034;-80
2023/04/20 02:37:51;;;;;;;3.55;2.20;;;;;;;;;;5029393;28;20409;-80
2023/04/20 02:40:16;;;;;;;5.03;2.40;;;;;;;;;;5026280;28;20762;-79
2023/04/20 02:42:42;;;;;;;3.88;2.47;;;;;;;;;;5032252;28;20409;-80
2023/04/20 02:45:09;;;;;;;5.10;2.53;;;;;;;;;;5030507;28;20420;-80
2023/04/20 02:47:35;;;;;;;4.72;2.42;;;;;;;;;;5030775;28;20401;-80
2023/04/20 02:50:01;;;;;;;8.02;2.40;;;;;;;;;;5018842;28;20464;-80
2023/04/20 02:52:27;;;;;;;3.78;2.05;;;;;;;;;;5022790;28;20397;-81
2023/04/20 02:54:53;;;;;;;3.67;2.10;;;;;;;;;;5016254;28;20421;-80
2023/04/20 02:57:19;;;;;;;6.03;2.60;;;;;;;;;;5016026;28;20437;-79
2023/04/20 02:59:45;;;;;;;5.05;2.30;;;;;;;;;;5029668;28;20433;-80
2023/04/20 03:02:11;;;;;;;4.00;2.15;;;;;;;;;;5027164;28;20398;-79
2023/04/20 03:04:38;;;;;;;3.85;1.75;;;;;;;;;;5021689;28;20405;-80
2023/04/20 03:07:04;;;;;;;5.38;2.10;;;;;;;;;;5033579;28;20426;-80
2023/04/20 03:09:30;;;;;;;4.53;2.47;;;;;;;;;;5032721;28;20553;-80
2023/04/20 03:11:56;;;;;;;4.97;1.90;;;;;;;;;;5024997;28;20454;-80
2023/04/20 03:14:22;;;;;;;4.35;2.28;;;;;;;;;;5033638;28;20441;-79
2023/04/20 03:16:48;;;;;;;8.00;2.78;;;;;;;;;;5023577;28;20540;-79
2023/04/20 03:19:14;;;;;;;5.05;2.55;;;;;;;;;;5022496;28;20446;-80
2023/04/20 03:21:40;;;;;;;7.45;2.60;;;;;;;;;;5025862;28;20440;-79
2023/04/20 03:24:06;;;;;;;4.15;2.35;;;;;;;;;;5027028;28;20441;-79
2023/04/20 03:26:32;;;;;;;5.05;2.60;;;;;;;;;;5028826;28;20426;-80
2023/04/20 03:28:58;;;;;;;4.72;2.10;;;;;;;;;;5037294;28;20546;-79
2023/04/20 03:31:25;;;;;;;4.45;2.53;;;;;;;;;;5032351;28;20432;-79
2023/04/20 03:33:51;;;;;;;4.32;2.70;;;;;;;;;;5040815;28;20409;-79
2023/04/20 03:36:16;;;;;;;7.97;3.10;;;;;;;;;;5023770;28;20409;-79
2023/04/20 03:38:42;;;;;;;5.57;2.45;;;;;;;;;;5026009;28;20426;-80
2023/04/20 03:41:08;;;;;;;5.93;2.88;;;;;;;;;;5023427;28;20500;-79
2023/04/20 03:43:34;;;;;;;6.95;2.85;;;;;;;;;;5026043;28;20437;-79
2023/04/20 03:46:00;;;;;;;4.00;1.95;;;;;;;;;;5022182;28;20464;-78
2023/04/20 03:48:26;;;;;;;4.57;2.53;;;;;;;;;;5022383;28;20561;-80
2023/04/20 03:50:52;;;;;;;4.72;2.60;;;;;;;;;;5019996;28;20409;-79
2023/04/20 03:53:18;;;;;;;4.68;2.53;;;;;;;;;;5030616;28;20820;-81
2023/04/20 03:55:44;;;;;;;6.07;2.78;;;;;;;;;;5020736;28;20407;-79
2023/04/20 03:58:10;;;;;;;6.53;2.88;;;;;;;;;;5016205;28;20444;-79
2023/04/20 04:00:36;;;;;;;4.22;2.70;;;;;;;;;;5018582;28;20964;-80
2023/04/20 04:03:02;;;;;;;4.80;2.47;;;;;;;;;;5020712;28;20403;-79
2023/04/20 04:05:28;;;;;;;4.63;2.28;;;;;;;;;;5028534;28;20421;-80
2023/04/20 04:07:54;;;;;;;4.13;2.10;;;;;;;;;;5024056;28;20403;-80
2023/04/20 04:10:20;;;;;;;5.10;2.45;;;;;;;;;;5027279;28;20435;-77
2023/04/20 04:12:46;;;;;;;8.10;2.85;;;;;;;;;;5020632;28;20401;-78
2023/04/20 04:15:12;;;;;;;6.75;3.40;;;;;;;;;;5017369;28;20482;-79
2023/04/20 04:17:39;;;;;;;4.97;2.58;;;;;;;;;;5017407;28;20892;-83
2023/04/20 04:20:09;;;;;;;13.10;5.88;;;;;;;;;;5030644;28;20421;-79
2023/04/20 04:22:35;;;;;;;23.48;8.95;;;;;;;;;;5026950;28;20457;-81
2023/04/20 04:25:01;;;;;;;37.22;13.32;;;;;;;;;;5015035;28;20716;-80
2023/04/20 04:27:28;;;;;;;35.95;13.77;;;;;;;;;;5017149;28;20445;-81
2023/04/20 04:29:55;;;;;;;38.53;14.98;;;;;;;;;;5035685;28;20417;-80
2023/04/20 04:32:23;;;;;;;11.48;5.03;;;;;;;;;;5044725;28;20414;-80
2023/04/20 04:34:49;;;;;;;6.95;3.25;;;;;;;;;;5045457;28;20414;-80
2023/04/20 04:37:15;;;;;;;5.45;2.50;;;;;;;;;;5044155;28;20524;-79
2023/04/20 04:39:41;;;;;;;5.47;2.80;;;;;;;;;;5029026;28;20427;-79
2023/04/20 04:42:07;;;;;;;5.18;2.63;;;;;;;;;;5029672;28;20417;-81
2023/04/20 04:44:33;;;;;;;5.68;2.80;;;;;;;;;;5023693;28;20470;-82
2023/04/20 04:47:01;;;;;;;6.47;3.20;;;;;;;;;;5025104;28;20413;-80
2023/04/20 04:49:28;;;;;;;5.35;2.92;;;;;;;;;;5016289;28;20426;-79
2023/04/20 04:51:54;;;;;;;5.20;3.05;;;;;;;;;;5019234;28;20919;-81
2023/04/20 04:54:20;;;;;;;4.82;2.58;;;;;;;;;;5022168;28;20926;-79
2023/04/20 04:56:46;;;;;;;5.70;3.10;;;;;;;;;;5032408;28;20417;-78
2023/04/20 04:59:12;;;;;;;7.50;3.65;;;;;;;;;;5033099;28;20429;-78
2023/04/20 05:01:37;;;;;;;5.13;2.97;;;;;;;;;;5032326;28;20463;-79
2023/04/20 05:04:03;;;;;;;5.53;2.75;;;;;;;;;;5035054;28;20405;-79
2023/04/20 05:06:30;;;;;;;14.63;6.80;;;;;;;;;;5035179;28;20409;-80
2023/04/20 05:08:56;;;;;;;13.18;5.75;;;;;;;;;;5030204;28;20439;-80
2023/04/20 05:11:22;;;;;;;10.65;5.43;;;;;;;;;;5038327;28;20470;-81
2023/04/20 05:13:48;;;;;;;12.57;5.60;;;;;;;;;;5010265;28;20409;-80
2023/04/20 05:16:15;;;;;;;9.43;5.13;;;;;;;;;;5033887;28;20450;-79
2023/04/20 05:18:40;;;;;;;10.07;4.75;;;;;;;;;;5039413;28;20931;-79
2023/04/20 05:21:06;;;;;;;6.93;3.70;;;;;;;;;;5029960;28;20419;-80
2023/04/20 05:23:32;;;;;;;10.63;3.97;;;;;;;;;;5024659;28;20502;-83
2023/04/20 05:25:59;;;;;;;10.27;4.03;;;;;;;;;;5015342;28;20480;-83
2023/04/20 05:28:25;;;;;;;9.93;3.97;;;;;;;;;;5036770;28;20448;-80
2023/04/20 05:30:53;;;;;;;7.20;3.70;;;;;;;;;;5038306;28;20952;-81
2023/04/20 05:33:20;;;;;;;8.03;3.97;;;;;;;;;;5038094;28;20465;-82
2023/04/20 05:35:46;;;;;;;7.32;3.60;;;;;;;;;;5039250;28;20439;-81
2023/04/20 05:38:12;;;;;;;6.13;3.55;;;;;;;;;;5049156;28;20728;-83
2023/04/20 05:40:38;;;;;;;4.10;2.70;;;;;;;;;;5039220;28;20441;-83
2023/04/20 05:43:04;;;;;;;7.70;3.88;;;;;;;;;;5040329;28;20407;-82
2023/04/20 05:45:29;;;;;;;9.00;4.25;;;2.40;99.90;;;;;;5048924;28;20480;-79
2023/04/20 05:47:56;;;;;;;6.30;3.50;;;2.60;99.90;;;;;;5064284;28;20429;-81
2023/04/20 05:50:23;;;;;;;5.60;3.20;;;;;;;;;;5051687;28;20553;-81
2023/04/20 05:52:49;;;;;;;4.68;3.40;;;;;;;;;;5064489;28;20413;-82
2023/04/20 05:55:15;;;;;;;6.82;3.92;;;;;;;;;;5063092;28;20399;-80
2023/04/20 05:57:44;;;;;;;8.18;3.58;;;;;;;;;;5032218;28;20806;-81
2023/04/20 06:00:11;;;;;;;6.45;3.10;;;;;;;;;;5044070;28;20464;-81
2023/04/20 06:02:37;;;;;;;8.32;3.88;;;;;;;;;;5055674;28;20405;-80
2023/04/20 06:05:03;;;;;;;7.68;3.90;;;;;;;;;;5044209;28;20419;-79
2023/04/20 06:07:29;;;;;;;6.85;3.47;;;;;;;;;;5052663;28;20400;-82
2023/04/20 06:09:56;;;;;;;5.55;3.03;;;;;;;;;;5057341;28;20035;-81
2023/04/20 06:12:22;;;;;;;11.02;4.68;;;;;;;;;;5045014;28;20029;-79
2023/04/20 06:14:48;;;;;;;4.72;3.05;;;;;;;;;;5039266;28;20381;-81
2023/04/20 06:17:14;;;;;;;6.05;3.33;;;3.90;99.90;;;;;;5054576;28;20036;-80
2023/04/20 06:19:39;;;;;;;10.30;2.75;;;;;;;;;;5051334;28;20029;-83
2023/04/20 06:22:07;;;;;;;4.43;2.65;;;;;;;;;;5044427;28;20033;-79
2023/04/20 06:24:33;;;;;;;8.80;3.33;;;;;;;;;;5044761;28;20029;-80
2023/04/20 06:27:00;;;;;;;6.82;3.03;;;;;;;;;;5043636;28;20049;-80
2023/04/20 06:29:26;;;;;;;7.90;3.08;;;;;;;;;;5047855;28;20045;-81
2023/04/20 06:31:52;;;;;;;6.78;3.15;;;;;;;;;;5057095;28;20029;-80
2023/04/20 06:34:17;;;;;;;;;;;4.40;99.90;;;;;;5043020;28;20060;-79
2023/04/20 06:36:43;;;;;;;;;;;;;;;;;;5053649;28;19909;-79
2023/04/20 06:39:12;;;;;;;;;;;;;;;;;;5049192;28;19921;-81
2023/04/20 06:41:38;;;;;;;;;;;;;;;;;;5049657;28;19913;-79
2023/04/20 06:44:04;;;;;;;;;;;;;;;;;;5042301;28;20288;-81
2023/04/20 06:46:30;;;;;;;;;;;;;;;;;;5052076;28;19916;-79
2023/04/20 06:48:58;;;;;;;;;;;;;;;;;;5054649;28;19909;-81
2023/04/20 06:51:25;;;;;;;;;;;;;;;;;;5042736;28;20352;-81
2023/04/20 06:53:51;;;;;;;;;;;;;;;;;;5055810;28;19948;-81
2023/04/20 06:56:17;;;;;;;;;;;;;;;;;;5053097;28;19926;-82
2023/04/20 06:58:43;;;;;;;;;;;;;;;;;;5048099;28;20370;-81
2023/04/20 07:01:09;;;;;;;;;;;;;;;;;;5055452;28;19913;-81
2023/04/20 07:03:35;;;;;;;;;;;;;;;;;;5043868;28;20300;-83
2023/04/20 07:06:01;;;;;;;;;;;;;;;;;;5046238;28;19916;-80
2023/04/20 07:08:27;;;;;;;8.63;3.90;;;;;;;;;;5050230;28;19948;-80
2023/04/20 07:10:52;;;;;;;19.17;4.55;;;;;;;;;;5047528;28;20025;-81
2023/04/20 07:13:18;;;;;;;10.77;4.25;;;;;;;;;;5040995;28;20029;-81
2023/04/20 07:15:45;;;;;;;6.22;3.25;;;;;;;;;;5050629;28;20570;-84
2023/04/20 07:18:11;;;;;;;7.18;3.47;;;;;;;;;;5047271;28;20033;-81
2023/04/20 07:20:37;;;;;;;7.88;4.85;;;;;;;;;;5042092;28;20036;-81
2023/04/20 07:23:03;;;;;;;6.40;3.63;;;;;;;;;;5057304;28;20160;-81
2023/04/20 07:25:32;;;;;;;6.82;3.65;;;;;;;;;;5057104;28;20116;-79
2023/04/20 07:27:58;;;;;;;8.85;4.22;;;;;;;;;;5039677;28;20041;-82
2023/04/20 07:30:24;;;;;;;10.38;5.35;;;7.30;99.90;;;;;;5050477;28;20388;-79
2023/04/20 07:32:50;;;;;;;11.52;4.30;;;;;;;;;;5047320;28;20063;-82
2023/04/20 07:35:16;;;;;;;6.47;3.55;;;8.30;99.90;;;;;;5047399;28;20052;-79
2023/04/20 07:37:41;;;;;;;10.23;3.53;;;8.40;99.90;;;;;;5048913;28;20024;-79
2023/04/20 07:40:08;;;;;;;8.00;4.05;;;;;;;;;;5045359;28;20037;-81
2023/04/20 07:42:35;;;;;;;12.07;4.43;;;;;;;;;;5029587;28;20024;-82
2023/04/20 07:45:02;;;;;;;9.30;4.00;;;;;;;;;;5045212;28;20080;-80
2023/04/20 07:47:28;;;;;;;8.45;4.78;;;;;;;;;;5051290;28;20025;-81
2023/04/20 07:49:54;;;;;;;7.18;3.88;;;;;;;;;;5044647;28;21051;-82
2023/04/20 07:52:19;;;;;;;12.00;5.22;;;8.60;99.90;;;;;;5049686;28;20039;-80
2023/04/20 07:54:45;;;;;;;6.28;3.67;;;;;;;;;;5054184;28;20025;-80
2023/04/20 07:57:11;;;;;;;10.15;4.05;;;;;;;;;;5040432;28;20040;-82
2023/04/20 07:59:39;;;;;;;8.40;4.05;;;;;;;;;;5057144;28;20048;-81
2023/04/20 08:02:06;;;;;;;6.28;3.40;;;;;;;;;;5058662;28;20029;-80
2023/04/20 08:04:32;;;;;;;6.68;3.85;;;;;;;;;;5048389;28;20028;-80
2023/04/20 08:06:58;;;;;;;8.23;3.90;;;;;;;;;;5047366;28;20504;-80
2023/04/20 08:09:25;;;;;;;7.50;3.58;;;;;;;;;;5042944;28;20033;-79
2023/04/20 08:11:51;;;;;;;7.25;3.65;;;;;;;;;;5046889;28;20366;-80
2023/04/20 08:14:17;;;;;;;5.60;2.92;;;;;;;;;;5037196;28;20303;-80
2023/04/20 08:16:43;;;;;;;5.25;3.35;;;;;;;;;;5051918;28;20029;-81
2023/04/20 08:19:09;;;;;;;8.25;3.65;;;;;;;;;;5047824;28;20067;-81
2023/04/20 08:21:39;;;;;;;6.65;3.20;;;;;;;;;;5042693;28;20029;-80
2023/04/20 08:24:05;;;;;;;6.25;3.30;;;;;;;;;;5051523;28;20118;-82
2023/04/20 08:26:31;;;;;;;8.65;3.42;;;;;;;;;;5031844;28;20050;-80
2023/04/20 08:28:58;;;;;;;7.18;3.50;;;;;;;;;;5043560;28;20124;-80
2023/04/20 08:31:24;;;;;;;11.68;3.97;;;;;;;;;;5051545;28;20467;-82
2023/04/20 08:33:50;;;;;;;8.05;3.80;;;;;;;;;;5046720;28;20492;-83
2023/04/20 08:36:16;;;;;;;7.97;3.60;;;10.80;99.90;;;;;;5051262;28;20036;-79
2023/04/20 08:38:42;;;;;;;6.82;3.03;;;;;;;;;;5045951;28;20504;-79
2023/04/20 08:41:07;;;;;;;7.82;3.42;;;12.00;99.90;;;;;;5041718;28;20500;-80
2023/04/20 08:43:33;;;;;;;11.15;3.58;;;;;;;;;;5038032;28;20388;-81
2023/04/20 08:46:03;;;;;;;9.32;4.10;;;13.50;99.90;;;;;;5049301;28;20025;-79
2023/04/20 08:48:36;;;;;;;8.63;4.18;;;14.70;99.80;;;;;;5052218;28;20477;-80
2023/04/20 08:51:05;;;;;;;5.55;3.05;;;16.90;96.70;;;;;;5047471;28;20036;-81
2023/04/20 08:53:31;;;;;;;7.45;3.35;;;;;;;;;;5051674;28;20035;-80
2023/04/20 08:55:57;;;;;;;5.60;3.30;;;;;;;;;;5049155;28;20481;-83
2023/04/20 08:58:31;;;;;;;5.85;3.53;;;;;;;;;;5039727;28;20036;-82
2023/04/20 09:00:59;;;;;;;5.70;3.53;;;;;;;;;;5049454;28;20116;-83
2023/04/20 09:03:35;;;;;;;10.40;4.05;;;;;;;;;;5048002;28;20029;-82
2023/04/20 09:06:01;;;;;;;6.10;3.33;;;;;;;;;;5042406;28;20500;-81
2023/04/20 09:08:38;;;;;;;6.45;3.65;;;15.20;90.10;;;;;;5051813;28;20504;-81
2023/04/20 09:11:04;;;;;;;9.65;3.88;;;;;;;;;;5043607;28;20034;-81
2023/04/20 09:13:31;;;;;;;7.53;3.42;;;;;;;;;;5034454;28;20037;-80
2023/04/20 09:15:57;;;;;;;7.40;3.58;;;;;;;;;;5045235;28;20274;-80
2023/04/20 09:18:23;;;;;;;7.95;4.03;;;;;;;;;;5051544;28;20256;-81
2023/04/20 09:20:50;;;;;;;8.43;4.28;;;;;;;;;;5041034;28;20387;-80
2023/04/20 09:23:17;;;;;;;7.70;4.43;;;;;;;;;;5054321;28;20138;-81
2023/04/20 09:25:45;;;;;;;6.20;3.72;;;;;;;;;;5052288;28;20033;-83
2023/04/20 09:28:12;;;;;;;13.75;4.78;;;12.80;96.90;;;;;;5046875;28;20436;-81
2023/04/20 09:30:44;;;;;;;14.48;6.55;;;;;;;;;;5058372;28;20025;-79
2023/04/20 09:33:11;;;;;;;17.33;6.50;;;;;;;;;;5052980;28;20029;-80
2023/04/20 09:35:39;;;;;;;11.65;5.45;;;12.40;98.50;;;;;;5050124;28;20048;-83
2023/04/20 09:38:06;;;;;;;12.32;5.93;;;12.40;98.90;;;;;;5061638;28;20028;-83
2023/04/20 09:40:32;;;;;;;7.15;4.03;;;;;;;;;;5043720;28;20045;-81
2023/04/20 09:43:09;;;;;;;7.47;3.78;;;11.40;98.40;;;;;;5049615;28;20052;-81
2023/04/20 09:45:37;;;;;;;13.57;5.78;;;;;;;;;;5057975;28;20120;-81
2023/04/20 09:48:07;;;;;;;19.20;8.68;;;;;;;;;;5061206;28;20060;-81
2023/04/20 09:50:35;;;;;;;12.15;5.22;;;;;;;;;;5049482;28;20102;-81
2023/04/20 09:53:01;;;;;;;9.98;4.68;;;;;;;;;;5058528;28;20029;-80
2023/04/20 09:55:29;;;;;;;7.13;4.53;;;12.70;99.20;;;;;;5060104;28;20021;-82
2023/04/20 09:57:56;;;;;;;11.68;4.55;;;;;;;;;;5046383;28;20173;-81
2023/04/20 10:00:22;;;;;;;10.30;5.63;;;;;;;;;;5059070;28;20068;-81
2023/04/20 10:02:48;;;;;;;7.90;4.43;;;;;;;;;;5054103;28;20600;-80
2023/04/20 10:05:15;;;;;;;12.25;4.72;;;;;;;;;;5053158;28;20112;-79
2023/04/20 10:07:41;;;;;;;6.53;3.85;;;;;;;;;;5058945;28;20017;-82
2023/04/20 10:10:11;;;;;;;8.68;4.22;;;;;;;;;;5046706;28;20037;-81
2023/04/20 10:12:47;;;;;;;10.20;4.78;;;;;;;;;;5052542;28;20028;-81
2023/04/20 10:15:13;;;;;;;10.95;4.00;;;;;;;;;;5045933;28;20030;-81
2023/04/20 10:17:40;;;;;;;9.70;5.28;;;;;;;;;;5058609;28;20050;-81
2023/04/20 10:20:17;;;;;;;6.38;3.40;;;;;;;;;;5057488;28;20044;-81
2023/04/20 10:22:43;;;;;;;12.40;4.18;;;;;;;;;;5048753;28;20150;-82
2023/04/20 10:25:18;;;;;;;13.25;4.32;;;12.80;96.60;;;;;;5055172;28;20056;-83
2023/04/20 10:27:52;;;;;;;14.40;6.35;;;;;;;;;;5053566;28;20064;-80
2023/04/20 10:30:19;;;;;;;10.40;4.20;;;;;;;;;;5056787;28;20217;-81
2023/04/20 10:32:45;;;;;;;9.43;4.35;;;;;;;;;;5052122;28;20642;-82
2023/04/20 10:35:12;;;;;;;6.28;3.70;;;;;;;;;;5046265;28;20084;-83
2023/04/20 10:37:51;;;;;;;6.53;3.90;;;;;;;;;;5058471;28;20033;-82
2023/04/20 10:40:27;;;;;;;4.72;2.75;;;12.50;97.50;;;;;;5037924;28;20436;-82
2023/04/20 10:42:53;;;;;;;8.63;3.80;;;;;;;;;;5045068;28;20037;-82
2023/04/20 10:45:20;;;;;;;15.90;4.88;;;;;;;;;;5041710;28;20043;-82
2023/04/20 10:47:46;;;;;;;14.32;5.00;;;;;;;;;;5056672;28;20025;-82
2023/04/20 10:50:13;;;;;;;6.93;3.30;;;;;;;;;;5050393;28;20033;-81
2023/04/20 10:52:40;;;;;;;8.10;2.78;;;;;;;;;;5047423;28;20384;-84
2023/04/20 10:55:17;;;;;;;4.65;2.50;;;;;;;;;;5055295;28;20040;-82
2023/04/20 10:57:45;;;;;;;8.95;3.40;;;12.30;93.60;;;;;;5047925;28;20021;-83
2023/04/20 11:00:15;;;;;;;7.63;3.22;;;;;;;;;;5054656;28;20037;-83
2023/04/20 11:02:49;;;;;;;4.20;2.67;;;;;;;;;;5048773;28;20048;-83
2023/04/20 11:05:15;;;;;;;8.32;3.47;;;;;;;;;;5051047;28;20036;-81
2023/04/20 11:07:47;;;;;;;5.20;2.58;;;;;;;;;;5052615;28;20143;-83
2023/04/20 11:10:14;;;;;;;10.88;4.22;;;;;;;;;;5049352;28;20123;-81
2023/04/20 11:12:40;;;;;;;12.57;4.03;;;;;;;;;;5050010;28;20029;-82
2023/04/20 11:15:08;;;;;;;8.00;2.92;;;;;;;;;;5048278;28;20036;-82
2023/04/20 11:17:35;;;;;;;10.85;3.45;;;;;;;;;;5052737;28;20017;-81
2023/04/20 11:20:08;;;;;;;5.53;2.67;;;;;;;;;;5049994;28;20044;-83
2023/04/20 11:22:34;;;;;;;7.82;3.33;;;;;;;;;;5050919;28;20029;-84
2023/04/20 11:25:06;;;;;;;7.38;3.35;;;;;;;;;;5054491;28;20025;-82
2023/04/20 11:27:33;;;;;;;5.45;2.85;;;;;;;;;;5046760;28;20164;-83
2023/04/20 11:29:59;;;;;;;5.95;2.35;;;;;;;;;;5063032;28;20029;-82
2023/04/20 11:32:26;;;;;;;3.70;2.08;;;;;;;;;;5066529;28;20033;-82
2023/04/20 11:35:06;;;;;;;4.78;2.42;;;13.30;91.10;;;;;;5053933;28;20018;-81
2023/04/20 11:37:33;;;;;;;3.83;1.95;;;;;;;;;;5054250;28;20415;-80
2023/04/20 11:40:06;;;;;;;12.07;4.15;;;13.00;88.90;;;;;;5047028;28;20095;-80
2023/04/20 11:42:31;;;;;;;;;;;13.30;90.70;;;;;;5042272;28;20029;-81
2023/04/20 11:44:58;;;;;;;12.48;4.18;;;;;;;;;;5043569;28;20288;-83
2023/04/20 11:47:24;;;;;;;14.55;5.65;;;;;;;;;;5052105;28;20053;-81
2023/04/20 11:49:50;;;;;;;18.52;5.30;;;;;;;;;;5035499;28;20043;-82
2023/04/20 11:52:16;;;;;;;7.80;3.70;;;;;;;;;;5051365;28;20164;-80
2023/04/20 11:54:42;;;;;;;14.85;3.92;;;;;;;;;;5050734;28;20156;-81
2023/04/20 11:57:08;;;;;;;23.55;6.50;;;;;;;;;;5043148;28;20184;-82
2023/04/20 11:59:34;;;;;;;15.80;5.95;;;;;;;;;;5046847;28;20041;-79
2023/04/20 12:02:03;;;;;;;20.80;6.82;;;;;;;;;;5051927;28;20032;-82
2023/04/20 12:04:33;;;;;;;14.82;5.10;;;12.90;90.50;;;;;;5043360;28;20083;-81
2023/04/20 12:06:59;;;;;;;12.75;5.07;;;;;;;;;;5048017;28;20195;-80
2023/04/20 12:09:25;;;;;;;14.60;3.90;;;;;;;;;;5051212;28;20100;-80
2023/04/20 12:11:51;;;;;;;10.80;4.45;;;;;;;;;;5041280;28;20055;-81
2023/04/20 12:14:17;;;;;;;11.98;4.38;;;;;;;;;;5038150;28;20096;-78
2023/04/20 12:16:43;;;;;;;17.50;4.95;;;;;;;;;;5049745;28;20473;-79
2023/04/20 12:19:09;;;;;;;12.13;3.40;;;12.10;93.90;;;;;;5046942;28;20101;-80
2023/04/20 12:21:35;;;;;;;4.82;2.33;;;;;;;;;;5040680;28;20024;-80
2023/04/20 12:24:01;;;;;;;4.55;2.58;;;;;;;;;;5047890;28;20025;-80
2023/04/20 12:26:27;;;;;;;20.75;4.82;;;;;;;;;;5042825;28;20477;-79
2023/04/20 12:28:53;;;;;;;11.13;4.22;;;;;;;;;;5046943;28;20071;-80
2023/04/20 12:31:20;;;;;;;17.27;5.30;;;11.70;98.60;;;;;;5050281;28;20136;-79
2023/04/20 12:33:46;;;;;;;14.40;3.85;;;;;;;;;;5042475;28;20059;-79
2023/04/20 12:36:11;;;;;;;14.27;4.57;;;11.60;96.40;;;;;;5051094;28;20183;-79
2023/04/20 12:38:37;;;;;;;8.40;2.90;;;;;;;;;;5049422;28;20468;-81
2023/04/20 12:41:03;;;;;;;4.22;2.08;;;;;;;;;;5038146;28;20099;-79
2023/04/20 12:43:30;;;;;;;30.90;7.78;;;11.70;96.00;;;;;;5044902;28;20461;-79
2023/04/20 12:45:56;;;;;;;18.08;6.10;;;;;;;;;;5038459;28;20537;-80
2023/04/20 12:48:21;;;;;;;13.52;5.13;;;11.40;99.90;;;;;;5040957;28;20120;-78
2023/04/20 12:50:48;;;;;;;26.80;7.55;;;;;;;;;;5043328;28;20024;-82
2023/04/20 12:53:14;;;;;;;;;;;;;;;;;;5047895;28;20465;-83
2023/04/20 12:55:39;;;;;;;7.53;3.05;;;11.60;99.90;;;;;;5050246;28;19948;-79
2023/04/20 12:58:05;;;;;;;;;;;;;;;;;;5041044;28;20225;-79
2023/04/20 13:00:31;;;;;;;;;;;;;;;;;;5044005;28;19952;-81
2023/04/20 13:02:57;;;;;;;;;;;;;;;;;;5046243;28;19962;-80
2023/04/20 13:05:23;;;;;;;;;;;;;;;;;;5040438;28;19915;-80
2023/04/20 13:07:49;;;;;;;;;;;;;;;;;;5049558;28;19978;-79
2023/04/20 13:10:16;;;;;;;11.38;4.20;;;9.00;94.70;;;;;;5047240;28;20322;-79
2023/04/20 13:12:42;;;;;;;;;;;;;;;;;;5040241;28;20040;-81
2023/04/20 13:15:08;;;;;;;;;;;10.30;96.60;;;;;;5043830;28;19954;-79
2023/04/20 13:17:33;;;;;;;;;;;10.50;96.70;;;;;;5048582;28;19908;-79
2023/04/20 13:19:59;;;;;;;;;;;10.60;95.50;;;;;;5042882;28;19916;-80
2023/04/20 13:22:24;;;;;;;;;;;10.60;96.50;;;;;;5046651;28;19915;-79
2023/04/20 13:24:50;;;;;;;;;;;;;;;;;;5042334;28;20038;-80
2023/04/20 13:27:16;;;;;;;;;;;10.40;96.90;;;;;;5044817;28;19921;-78
2023/04/20 13:29:42;;;;;;;;;;;;;;;;;;5032601;28;19909;-78
2023/04/20 13:32:08;;;;;;;;;;;;;;;;;;5044616;28;20774;-82
2023/04/20 13:34:34;;;;;;;;;;;;;;;;;;5037300;28;20000;-81
2023/04/20 13:36:59;;;;;;;;;;;10.50;97.30;;;;;;5040269;28;19931;-79
2023/04/20 13:39:26;;;;;;;;;;;;;;;;;;5046459;28;19925;-79
2023/04/20 13:41:52;;;;;;;;;;;;;;;;;;5045163;28;19917;-79
2023/04/20 13:44:17;;;;;;;;;;;10.70;97.90;;;;;;5045582;28;19913;-78
2023/04/20 13:46:44;;;;;;;;;;;10.70;96.80;;;;;;5044858;28;19932;-80
2023/04/20 13:49:10;;;;;;;;;;;;;;;;;;5032405;28;20332;-79
2023/04/20 13:51:36;;;;;;;;;;;;;;;;;;5045942;28;20314;-81
2023/04/20 13:54:02;;;;;;;;;;;;;;;;;;5044730;28;19908;-82
2023/04/20 13:56:28;;;;;;;;;;;;;;;;;;5039909;28;20455;-79
2023/04/20 13:58:53;;;;;;;;;;;;;;;;;;5034607;28;20035;-81
2023/04/20 14:01:19;;;;;;;;;;;;;;;;;;5036320;28;19909;-78
2023/04/20 14:03:45;;;;;;;;;;;;;;;;;;5044724;28;19909;-79
2023/04/20 14:06:11;;;;;;;;;;;;;;;;;;5041873;28;19917;-80
2023/04/20 14:08:37;;;;;;;;;;;;;;;;;;5042259;28;19909;-80
2023/04/20 14:11:03;;;;;;;;;;;;;;;;;;5052254;28;20372;-80
2023/04/20 14:13:29;;;;;;;;;;;;;;;;;;5042719;28;20354;-79
2023/04/20 14:15:55;;;;;;;;;;;;;;;;;;5045981;28;19909;-78
2023/04/20 14:18:21;;;;;;;;;;;;;;;;;;5044400;28;19923;-79
2023/04/20 14:20:51;;;;;;;;;;;;;;;;;;5049465;28;20049;-79
2023/04/20 14:23:16;;;;;;;;;;;;;;;;;;5042229;28;19909;-81
2023/04/20 14:25:42;;;;;;;;;;;;;;;;;;5037849;28;19916;-80
2023/04/20 14:28:08;;;;;;;;;;;;;;;;;;5045023;28;19980;-80
2023/04/20 14:30:34;;;;;;;;;;;;;;;;;;5044865;28;20107;-78
2023/04/20 14:33:00;;;;;;;;;;;;;;;;;;5042523;28;19919;-81
2023/04/20 14:35:26;;;;;;;;;;;;;;;;;;5030327;28;19913;-79
2023/04/20 14:37:52;;;;;;;;;;;;;;;;;;5046627;28;20427;-79
2023/04/20 14:40:18;;;;;;;;;;;;;;;;;;5042836;28;19916;-79
2023/04/20 14:42:43;;;;;;;;;;;;;;;;;;5033515;28;19913;-79
2023/04/20 14:45:09;;;;;;;;;;;;;;;;;;5038030;28;20339;-82
2023/04/20 14:47:35;;;;;;;;;;;;;;;;;;5023237;28;20481;-79
2023/04/20 14:50:01;;;;;;;;;;;;;;;;;;5049097;28;19920;-81
2023/04/20 14:52:27;;;;;;;;;;;;;;;;;;5049006;28;20359;-79
2023/04/20 14:54:53;;;;;;;;;;;;;;;;;;5036789;28;19944;-79